createdAt,value
2018-05-10T00:02:03.931Z,96745.70
2018-05-10T00:04:32.933Z,96743.52
2018-05-10T00:07:01.184Z,96745.81
2018-05-10T00:09:29.415Z,96748.66
2018-05-10T00:11:58.419Z,96747.06
2018-05-10T00:14:27.456Z,96746.75
2018-05-10T00:16:55.684Z,96739.41
2018-05-10T00:19:23.943Z,96743.91
2018-05-10T00:21:52.175Z,96749.13
2018-05-10T00:24:20.502Z,96745.36
2018-05-10T00:26:48.707Z,96741.80
2018-05-10T00:29:16.987Z,96737.66
2018-05-10T00:31:45.230Z,96732.41
2018-05-10T00:34:13.489Z,96736.94
2018-05-10T00:36:41.726Z,96732.77
2018-05-10T00:39:09.975Z,96732.07
2018-05-10T00:41:38.987Z,96725.86
2018-05-10T00:44:07.248Z,96724.59
2018-05-10T00:46:35.487Z,96728.48
2018-05-10T00:49:03.739Z,96724.64
2018-05-10T00:51:31.981Z,96718.27
2018-05-10T00:54:00.249Z,96718.67
2018-05-10T00:56:28.482Z,96716.80
2018-05-10T00:58:56.731Z,96716.40
2018-05-10T01:01:24.988Z,96714.75
2018-05-10T01:03:53.259Z,96718.67
2018-05-10T01:06:21.515Z,96725.26
2018-05-10T01:08:49.763Z,96718.05
2018-05-10T01:11:18.007Z,96721.44
2018-05-10T01:13:46.260Z,96727.03
2018-05-10T01:16:14.503Z,96733.32
2018-05-10T01:18:42.763Z,96722.41
2018-05-10T01:21:11.775Z,96729.81
2018-05-10T01:23:40.799Z,96731.64
2018-05-10T01:26:09.034Z,96738.73
2018-05-10T01:28:37.287Z,96736.94
2018-05-10T01:31:06.282Z,96741.46
2018-05-10T01:33:34.547Z,96744.63
2018-05-10T01:36:16.411Z,96742.80
2018-05-10T01:38:44.655Z,96745.48
2018-05-10T01:41:12.887Z,96734.62
2018-05-10T01:43:41.149Z,96735.17
2018-05-10T01:46:09.381Z,96737.16
2018-05-10T01:48:37.624Z,96741.27
2018-05-10T01:51:05.891Z,96736.48
2018-05-10T01:53:34.882Z,96729.53
2018-05-10T01:56:03.898Z,96729.95
2018-05-10T01:58:33.803Z,96737.30
2018-05-10T02:01:02.063Z,96740.20
2018-05-10T02:03:30.323Z,96734.86
2018-05-10T02:05:59.322Z,96734.53
2018-05-10T02:08:27.565Z,96750.16
2018-05-10T02:10:56.587Z,96754.68
2018-05-10T02:13:24.826Z,96748.33
2018-05-10T02:15:53.075Z,96744.12
2018-05-10T02:18:22.067Z,96745.45
2018-05-10T02:20:50.326Z,96752.48
2018-05-10T02:23:18.597Z,96753.23
2018-05-10T02:25:46.838Z,96760.06
2018-05-10T02:28:15.066Z,96758.61
2018-05-10T02:30:43.307Z,96763.39
2018-05-10T02:33:11.535Z,96777.77
2018-05-10T02:35:39.787Z,96774.94
2018-05-10T02:38:08.019Z,96779.75
2018-05-10T02:40:36.278Z,96775.34
2018-05-10T02:43:05.322Z,96774.80
2018-05-10T02:45:33.568Z,96778.07
2018-05-10T02:48:01.800Z,96774.80
2018-05-10T02:50:30.055Z,96773.25
2018-05-10T02:52:59.061Z,96776.66
2018-05-10T02:55:28.078Z,96786.70
2018-05-10T02:57:57.080Z,96787.91
2018-05-10T03:00:26.105Z,96787.95
2018-05-10T03:02:54.336Z,96797.13
2018-05-10T03:05:22.591Z,96800.19
2018-05-10T03:07:50.851Z,96791.97
2018-05-10T03:10:19.885Z,96808.52
2018-05-10T03:12:48.161Z,96802.53
2018-05-10T03:15:16.412Z,96811.68
2018-05-10T03:17:44.657Z,96805.02
2018-05-10T03:20:12.887Z,96810.23
2018-05-10T03:22:41.143Z,96808.97
2018-05-10T03:25:09.383Z,96809.52
2018-05-10T03:27:38.405Z,96808.25
2018-05-10T03:30:06.635Z,96806.33
2018-05-10T03:32:34.890Z,96808.06
2018-05-10T03:35:03.134Z,96806.45
2018-05-10T03:37:31.406Z,96809.14
2018-05-10T03:39:59.647Z,96813.78
2018-05-10T03:42:28.655Z,96809.25
2018-05-10T03:44:56.886Z,96818.34
2018-05-10T03:47:25.137Z,96827.25
2018-05-10T03:49:53.398Z,96819.27
2018-05-10T03:52:22.420Z,96822.69
2018-05-10T03:54:51.418Z,96830.56
2018-05-10T03:57:20.444Z,96828.58
2018-05-10T03:59:48.683Z,96824.69
2018-05-10T04:02:16.953Z,96832.26
2018-05-10T04:05:02.986Z,96832.38
2018-05-10T04:10:56.531Z,96829.27
2018-05-10T04:13:25.542Z,96836.93
2018-05-10T04:15:54.534Z,96844.52
2018-05-10T04:18:22.826Z,96843.38
2018-05-10T04:20:51.833Z,96850.14
2018-05-10T04:23:20.101Z,96850.12
2018-05-10T04:25:48.351Z,96853.03
2018-05-10T04:28:16.600Z,96850.44
2018-05-10T04:30:45.594Z,96854.09
2018-05-10T04:33:13.944Z,96857.56
2018-05-10T04:35:42.246Z,96856.48
2018-05-10T04:38:10.424Z,96852.17
2018-05-10T04:40:39.482Z,96847.83
2018-05-10T04:43:08.494Z,96844.05
2018-05-10T04:45:37.499Z,96846.19
2018-05-10T04:48:06.898Z,96855.31
2018-05-10T04:50:35.128Z,96864.81
2018-05-10T04:53:03.384Z,96845.06
2018-05-10T04:55:31.610Z,96851.33
2018-05-10T04:57:59.854Z,96855.16
2018-05-10T05:00:28.088Z,96854.53
2018-05-10T05:02:56.343Z,96856.03
2018-05-10T05:05:25.343Z,96854.51
2018-05-10T05:07:53.594Z,96862.45
2018-05-10T05:10:21.827Z,96861.80
2018-05-10T05:12:50.839Z,96863.80
2018-05-10T05:15:19.098Z,96874.45
2018-05-10T05:17:47.343Z,96878.30
2018-05-10T05:20:15.594Z,96874.84
2018-05-10T05:22:44.601Z,96882.16
2018-05-10T05:25:13.635Z,96883.05
2018-05-10T05:27:41.871Z,96884.37
2018-05-10T05:30:10.113Z,96894.55
2018-05-10T05:32:38.394Z,96890.45
2018-05-10T05:35:07.384Z,96898.66
2018-05-10T05:37:36.381Z,96898.00
2018-05-10T05:40:04.687Z,96903.64
2018-05-10T05:42:33.793Z,96899.33
2018-05-10T05:45:02.822Z,96905.95
2018-05-10T05:47:31.087Z,96904.45
2018-05-10T05:50:00.113Z,96902.61
2018-05-10T05:52:28.375Z,96906.62
2018-05-10T05:54:57.409Z,96914.29
2018-05-10T05:57:26.403Z,96926.01
2018-05-10T05:59:55.431Z,96928.56
2018-05-10T06:02:23.665Z,96931.72
2018-05-10T06:04:51.913Z,96934.07
2018-05-10T06:07:20.214Z,96937.23
2018-05-10T06:09:48.473Z,96943.16
2018-05-10T06:12:16.746Z,96937.05
2018-05-10T06:14:45.765Z,96939.02
2018-05-10T06:17:14.019Z,96944.02
2018-05-10T06:19:43.149Z,96946.57
2018-05-10T06:22:12.162Z,96948.06
2018-05-10T06:24:41.259Z,96958.82
2018-05-10T06:27:09.426Z,96960.73
2018-05-10T06:29:37.742Z,96962.95
2018-05-10T06:32:06.738Z,96960.71
2018-05-10T06:34:35.748Z,96964.86
2018-05-10T06:37:04.803Z,96963.58
2018-05-10T06:39:33.043Z,96968.75
2018-05-10T06:42:02.159Z,96972.84
2018-05-10T06:44:31.163Z,96980.27
2018-05-10T06:47:00.294Z,96976.54
2018-05-10T06:49:29.299Z,96984.90
2018-05-10T06:51:57.575Z,96991.08
2018-05-10T06:54:26.578Z,96989.89
2018-05-10T06:56:55.987Z,96990.91
2018-05-10T06:59:25.039Z,96999.78
2018-05-10T07:01:53.299Z,96991.78
2018-05-10T07:04:22.396Z,97000.11
2018-05-10T07:06:51.407Z,97001.30
2018-05-10T07:09:20.546Z,97002.34
2018-05-10T07:11:48.691Z,97013.05
2018-05-10T07:14:17.718Z,97012.48
2018-05-10T07:16:45.967Z,97012.60
2018-05-10T07:19:14.188Z,97012.55
2018-05-10T07:21:43.203Z,97016.51
2018-05-10T07:24:11.460Z,97016.28
2018-05-10T07:26:39.711Z,97018.09
2018-05-10T07:29:07.944Z,97023.84
2018-05-10T07:31:37.724Z,97017.16
2018-05-10T07:34:05.959Z,97020.53
2018-05-10T07:36:35.090Z,97030.72
2018-05-10T07:39:03.331Z,97027.78
2018-05-10T07:41:31.643Z,97037.89
2018-05-10T07:44:00.638Z,97039.17
2018-05-10T07:46:28.901Z,97042.70
2018-05-10T07:48:57.131Z,97050.67
2018-05-10T07:51:25.366Z,97052.89
2018-05-10T07:53:53.603Z,97057.75
2018-05-10T07:56:22.722Z,97064.20
2018-05-10T07:58:51.816Z,97070.62
2018-05-10T08:01:20.124Z,97074.06
2018-05-10T08:03:49.118Z,97080.39
2018-05-10T08:06:18.134Z,97087.77
2018-05-10T08:08:47.161Z,97094.59
2018-05-10T08:11:15.424Z,97101.91
2018-05-10T08:13:44.455Z,97102.51
2018-05-10T08:16:12.692Z,97117.37
2018-05-10T08:18:40.943Z,97117.95
2018-05-10T08:21:09.175Z,97117.51
2018-05-10T08:23:49.077Z,97122.77
2018-05-10T08:26:17.354Z,97119.52
2018-05-10T08:28:46.380Z,97125.95
2018-05-10T08:31:14.605Z,97128.63
2018-05-10T08:33:42.852Z,97132.22
2018-05-10T08:36:11.093Z,97131.22
2018-05-10T08:38:39.406Z,97140.38
2018-05-10T08:41:08.393Z,97135.08
2018-05-10T08:43:36.640Z,97143.70
2018-05-10T08:46:05.638Z,97153.28
2018-05-10T08:48:33.897Z,97163.44
2018-05-10T08:51:02.957Z,97158.03
2018-05-10T08:53:31.196Z,97159.68
2018-05-10T08:56:00.564Z,97169.93
2018-05-10T08:58:28.822Z,97170.83
2018-05-10T09:00:57.062Z,97175.48
2018-05-10T09:03:25.319Z,97177.94
2018-05-10T09:05:53.552Z,97185.98
2018-05-10T09:08:21.806Z,97186.14
2018-05-10T09:10:50.048Z,97191.69
2018-05-10T09:13:19.118Z,97199.88
2018-05-10T09:15:47.362Z,97199.27
2018-05-10T09:18:15.628Z,97223.39
2018-05-10T09:20:44.636Z,97209.25
2018-05-10T09:23:13.668Z,97215.80
2018-05-10T09:25:41.902Z,97216.02
2018-05-10T09:28:10.167Z,97222.97
2018-05-10T09:30:39.162Z,97231.73
2018-05-10T09:33:07.398Z,97235.36
2018-05-10T09:35:36.430Z,97243.02
2018-05-10T09:38:04.687Z,97247.48
2018-05-10T09:40:32.955Z,97253.16
2018-05-10T09:43:01.252Z,97253.25
2018-05-10T09:45:29.459Z,97253.38
2018-05-10T09:47:57.759Z,97248.73
2018-05-10T09:50:26.779Z,97252.09
2018-05-10T09:52:55.783Z,97254.25
2018-05-10T09:55:25.398Z,97253.91
2018-05-10T09:57:54.412Z,97255.23
2018-05-10T10:00:29.743Z,97257.11
2018-05-10T10:02:57.980Z,97253.97
2018-05-10T10:05:27.001Z,97257.29
2018-05-10T10:07:55.247Z,97258.16
2018-05-10T10:10:25.061Z,97262.58
2018-05-10T10:12:53.255Z,97263.38
2018-05-10T10:15:22.271Z,97263.63
2018-05-10T10:17:51.271Z,97257.44
2018-05-10T10:20:20.305Z,97267.70
2018-05-10T10:22:48.635Z,97276.05
2018-05-10T10:25:16.966Z,97270.66
2018-05-10T10:27:45.138Z,97283.36
2018-05-10T10:30:14.153Z,97274.91
2018-05-10T10:32:43.153Z,97280.17
2018-05-10T10:35:11.406Z,97278.66
2018-05-10T10:37:39.723Z,97287.56
2018-05-10T10:40:08.858Z,97289.38
2018-05-10T10:42:37.826Z,97292.63
2018-05-10T10:45:06.085Z,97287.96
2018-05-10T10:47:34.320Z,97291.39
2018-05-10T10:50:03.372Z,97300.94
2018-05-10T10:52:31.624Z,97305.54
2018-05-10T10:55:00.641Z,97295.34
2018-05-10T10:57:28.903Z,97301.11
2018-05-10T10:59:58.054Z,97299.29
2018-05-10T11:02:27.131Z,97305.70
2018-05-10T11:04:56.239Z,97303.30
2018-05-10T11:07:25.257Z,97302.27
2018-05-10T11:09:54.355Z,97308.52
2018-05-10T11:12:23.395Z,97315.25
2018-05-10T11:14:51.631Z,97312.18
2018-05-10T11:17:19.959Z,97312.50
2018-05-10T11:19:48.237Z,97317.42
2018-05-10T11:22:17.270Z,97317.52
2018-05-10T11:24:45.534Z,97324.47
2018-05-10T11:27:13.843Z,97330.91
2018-05-10T11:29:42.027Z,97330.97
2018-05-10T11:32:10.300Z,97331.14
2018-05-10T11:34:39.324Z,97339.11
2018-05-10T11:37:07.612Z,97340.78
2018-05-10T11:39:35.863Z,97339.06
2018-05-10T11:42:04.127Z,97334.95
2018-05-10T11:44:32.567Z,97348.16
2018-05-10T11:47:00.847Z,97347.87
2018-05-10T11:49:29.855Z,97347.55
2018-05-10T11:51:59.004Z,97349.81
2018-05-10T11:54:28.010Z,97355.59
2018-05-10T11:56:57.034Z,97350.75
2018-05-10T11:59:25.344Z,97349.84
2018-05-10T12:01:53.595Z,97351.09
2018-05-10T12:04:22.643Z,97359.83
2018-05-10T12:06:50.932Z,97355.70
2018-05-10T12:09:19.275Z,97359.95
2018-05-10T12:11:47.539Z,97362.89
2018-05-10T12:14:16.556Z,97356.46
2018-05-10T12:16:44.836Z,97362.52
2018-05-10T12:19:13.868Z,97367.38
2018-05-10T12:21:42.933Z,97369.73
2018-05-10T12:24:12.554Z,97362.89
2018-05-10T12:26:40.873Z,97372.68
2018-05-10T12:29:09.866Z,97376.41
2018-05-10T12:31:38.991Z,97368.66
2018-05-10T12:34:07.249Z,97372.58
2018-05-10T12:36:36.282Z,97379.45
2018-05-10T12:39:05.327Z,97382.52
2018-05-10T12:41:33.658Z,97385.72
2018-05-10T12:44:02.600Z,97382.30
2018-05-10T12:46:30.849Z,97386.87
2018-05-10T12:48:59.151Z,97384.25
2018-05-10T12:51:28.157Z,97380.73
2018-05-10T12:53:57.184Z,97398.50
2018-05-10T12:56:25.571Z,97393.16
2018-05-10T12:58:54.521Z,97399.05
2018-05-10T13:01:22.773Z,97401.85
2018-05-10T13:03:51.052Z,97398.52
2018-05-10T13:06:19.321Z,97399.95
2018-05-10T13:08:48.417Z,97407.47
2018-05-10T13:11:16.672Z,97409.70
2018-05-10T13:13:44.927Z,97410.63
2018-05-10T13:16:13.216Z,97406.62
2018-05-10T13:18:41.466Z,97422.43
2018-05-10T13:21:09.714Z,97410.08
2018-05-10T13:23:37.987Z,97420.61
2018-05-10T13:26:06.226Z,97420.38
2018-05-10T13:28:34.492Z,97424.59
2018-05-10T13:31:02.746Z,97431.36
2018-05-10T13:33:31.774Z,97440.32
2018-05-10T13:36:00.034Z,97444.45
2018-05-10T13:38:29.172Z,97448.59
2018-05-10T13:40:57.347Z,97458.81
2018-05-10T13:43:26.769Z,97459.97
2018-05-10T13:45:55.023Z,97462.67
2018-05-10T13:48:23.312Z,97469.58
2018-05-10T13:50:52.363Z,97481.81
2018-05-10T13:53:20.723Z,97480.20
2018-05-10T13:55:49.747Z,97488.17
2018-05-10T13:58:18.011Z,97500.02
2018-05-10T14:00:47.074Z,97509.06
2018-05-10T14:03:15.324Z,97511.11
2018-05-10T14:05:44.338Z,97521.02
2018-05-10T14:08:13.343Z,97529.05
2018-05-10T14:10:44.214Z,97537.50
2018-05-10T14:13:12.463Z,97556.16
2018-05-10T14:15:40.744Z,97547.15
2018-05-10T14:18:09.033Z,97551.69
2018-05-10T14:20:37.299Z,97567.79
2018-05-10T14:23:06.313Z,97579.52
2018-05-10T14:25:34.658Z,97573.89
2018-05-10T14:28:02.959Z,97581.36
2018-05-10T14:30:31.347Z,97582.88
2018-05-10T14:32:59.615Z,97595.03
2018-05-10T14:35:28.640Z,97606.88
2018-05-10T14:37:57.644Z,97599.26
2018-05-10T14:40:25.920Z,97614.67
2018-05-10T14:42:54.931Z,97617.72
2018-05-10T14:45:24.027Z,97630.33
2018-05-10T14:47:53.055Z,97632.34
2018-05-10T14:50:21.335Z,97639.16
2018-05-10T14:52:50.350Z,97651.47
2018-05-10T14:55:19.411Z,97653.44
2018-05-10T14:57:47.656Z,97664.27
2018-05-10T15:00:16.704Z,97668.27
2018-05-10T15:02:45.724Z,97673.21
2018-05-10T15:05:13.995Z,97688.74
2018-05-10T15:07:42.258Z,97686.92
2018-05-10T15:10:10.610Z,97690.93
2018-05-10T15:12:39.638Z,97703.19
2018-05-10T15:15:07.915Z,97704.92
2018-05-10T15:17:36.926Z,97704.15
2018-05-10T15:20:05.948Z,97712.16
2018-05-10T15:22:34.251Z,97718.19
2018-05-10T15:25:02.515Z,97718.09
2018-05-10T15:27:31.555Z,97721.86
2018-05-10T15:29:59.793Z,97724.17
2018-05-10T15:32:28.806Z,97725.09
2018-05-10T15:34:57.831Z,97735.65
2018-05-10T15:37:26.215Z,97729.38
2018-05-10T15:39:55.843Z,97735.53
2018-05-10T15:42:24.144Z,97737.63
2018-05-10T15:44:52.400Z,97735.28
2018-05-10T15:47:21.446Z,97740.27
2018-05-10T15:49:49.711Z,97744.31
2018-05-10T15:52:17.995Z,97748.88
2018-05-10T15:54:47.009Z,97749.77
2018-05-10T15:57:15.299Z,97758.55
2018-05-10T15:59:43.568Z,97759.36
2018-05-10T16:02:12.607Z,97753.16
2018-05-10T16:04:40.884Z,97756.12
2018-05-10T16:07:09.903Z,97764.48
2018-05-10T16:09:38.922Z,97766.51
2018-05-10T16:12:07.191Z,97760.73
2018-05-10T16:14:35.434Z,97771.25
2018-05-10T16:17:03.743Z,97770.52
2018-05-10T16:19:33.482Z,97776.95
2018-05-10T16:22:02.551Z,97786.82
2018-05-10T16:24:30.903Z,97783.66
2018-05-10T16:26:59.099Z,97782.84
2018-05-10T16:29:27.343Z,97794.38
2018-05-10T16:31:56.388Z,97804.34
2018-05-10T16:34:24.688Z,97801.55
2018-05-10T16:36:52.996Z,97807.86
2018-05-10T16:39:21.267Z,97807.25
2018-05-10T16:41:49.544Z,97813.13
2018-05-10T16:44:18.605Z,97813.13
2018-05-10T16:46:46.979Z,97821.02
2018-05-10T16:49:15.223Z,97823.19
2018-05-10T16:51:43.487Z,97826.07
2018-05-10T16:54:12.542Z,97829.27
2018-05-10T16:56:40.789Z,97832.42
2018-05-10T16:59:09.829Z,97836.55
2018-05-10T17:01:38.069Z,97836.19
2018-05-10T17:04:06.334Z,97837.23
2018-05-10T17:06:34.594Z,97844.16
2018-05-10T17:09:02.899Z,97849.91
2018-05-10T17:11:31.208Z,97849.74
2018-05-10T17:13:59.525Z,97857.88
2018-05-10T17:16:28.564Z,97861.23
2018-05-10T17:18:56.826Z,97866.17
2018-05-10T17:21:25.851Z,97874.68
2018-05-10T17:23:54.128Z,97876.98
2018-05-10T17:26:22.412Z,97881.27
2018-05-10T17:28:51.454Z,97884.76
2018-05-10T17:31:19.699Z,97895.04
2018-05-10T17:33:48.733Z,97890.99
2018-05-10T17:36:16.981Z,97890.10
2018-05-10T17:38:45.275Z,97903.34
2018-05-10T17:41:13.510Z,97907.63
2018-05-10T17:43:41.780Z,97910.38
2018-05-10T17:46:10.790Z,97920.19
2018-05-10T17:48:39.795Z,97945.52
2018-05-10T17:51:08.035Z,97938.32
2018-05-10T17:53:36.291Z,97944.76
2018-05-10T17:56:04.531Z,97940.10
2018-05-10T17:58:32.816Z,97941.91
2018-05-10T18:01:01.056Z,97949.25
2018-05-10T18:03:29.315Z,97949.86
2018-05-10T18:05:58.310Z,97953.59
2018-05-10T18:08:27.312Z,97959.94
2018-05-10T18:10:56.331Z,97963.91
2018-05-10T18:13:25.379Z,97964.92
2018-05-10T18:15:53.731Z,97966.37
2018-05-10T18:18:22.735Z,97969.16
2018-05-10T18:20:52.127Z,97974.68
2018-05-10T18:23:20.405Z,97983.58
2018-05-10T18:25:48.691Z,97978.03
2018-05-10T18:28:16.934Z,97984.44
2018-05-10T18:30:45.183Z,97984.84
2018-05-10T18:33:13.502Z,97976.49
2018-05-10T18:35:41.675Z,97992.97
2018-05-10T18:38:10.676Z,97999.82
2018-05-10T18:40:39.721Z,97998.36
2018-05-10T18:43:07.955Z,98020.42
2018-05-10T18:45:36.243Z,98018.20
2018-05-10T18:48:04.491Z,98021.80
2018-05-10T18:50:32.773Z,98025.73
2018-05-10T18:53:01.007Z,98022.61
2018-05-10T18:55:29.256Z,98035.09
2018-05-10T18:57:57.485Z,98034.98
2018-05-10T19:00:25.794Z,98040.27
2018-05-10T19:02:54.807Z,98039.06
2018-05-10T19:05:23.847Z,98042.04
2018-05-10T19:07:52.108Z,98042.90
2018-05-10T19:10:21.128Z,98060.34
2018-05-10T19:12:49.375Z,98056.03
2018-05-10T19:15:17.637Z,98059.27
2018-05-10T19:17:45.877Z,98065.25
2018-05-10T19:20:14.916Z,98068.53
2018-05-10T19:22:43.153Z,98074.41
2018-05-10T19:27:46.011Z,98080.89
2018-05-10T19:30:15.060Z,98091.52
2018-05-10T19:32:43.321Z,98084.94
2018-05-10T19:35:11.570Z,98081.31
2018-05-10T19:37:39.827Z,98082.91
2018-05-10T19:40:08.155Z,98082.39
2018-05-10T19:42:37.187Z,98086.81
2018-05-10T19:45:05.414Z,98082.09
2018-05-10T19:47:33.764Z,98087.80
2018-05-10T19:50:02.803Z,98093.20
2018-05-10T19:52:31.050Z,98106.39
2018-05-10T19:55:00.059Z,98106.28
2018-05-10T19:57:29.115Z,98107.97
2018-05-10T19:59:57.434Z,98110.19
2018-05-10T20:02:26.460Z,98117.69
2018-05-10T20:04:55.455Z,98119.27
2018-05-10T20:07:24.476Z,98125.23
2018-05-10T20:09:52.777Z,98124.17
2018-05-10T20:12:22.440Z,98123.96
2018-05-10T20:14:51.388Z,98128.87
2018-05-10T20:17:20.431Z,98125.69
2018-05-10T20:19:49.425Z,98131.20
2018-05-10T20:22:17.682Z,98134.11
2018-05-10T20:24:46.796Z,98132.25
2018-05-10T20:27:15.810Z,98138.46
2018-05-10T20:29:44.808Z,98137.99
2018-05-10T20:32:13.888Z,98142.88
2018-05-10T20:34:42.098Z,98147.52
2018-05-10T20:37:11.117Z,98145.16
2018-05-10T20:39:40.122Z,98152.31
2018-05-10T20:42:08.387Z,98147.66
2018-05-10T20:44:36.667Z,98150.45
2018-05-10T20:47:04.900Z,98148.76
2018-05-10T20:49:33.163Z,98153.16
2018-05-10T20:52:02.214Z,98145.10
2018-05-10T20:54:30.446Z,98148.07
2018-05-10T20:56:58.701Z,98147.66
2018-05-10T20:59:26.932Z,98146.83
2018-05-10T21:01:56.069Z,98142.36
2018-05-10T21:04:25.545Z,98143.88
2018-05-10T21:06:54.567Z,98143.93
2018-05-10T21:09:23.587Z,98158.12
2018-05-10T21:11:52.684Z,98151.85
2018-05-10T21:14:21.802Z,98156.09
2018-05-10T21:16:50.804Z,98162.75
2018-05-10T21:19:19.068Z,98167.21
2018-05-10T21:21:48.817Z,98162.92
2018-05-10T21:24:17.851Z,98167.33
2018-05-10T21:26:46.084Z,98169.88
2018-05-10T21:29:14.400Z,98176.28
2018-05-10T21:31:43.415Z,98176.41
2018-05-10T21:34:11.683Z,98170.95
2018-05-10T21:36:39.949Z,98175.48
2018-05-10T21:39:08.281Z,98172.42
2018-05-10T21:41:37.867Z,98174.96
2018-05-10T21:44:06.136Z,98172.10
2018-05-10T21:46:34.383Z,98177.69
2018-05-10T21:49:02.693Z,98172.33
2018-05-10T21:51:30.938Z,98171.41
2018-05-10T21:53:59.182Z,98180.89
2018-05-10T21:56:28.186Z,98181.63
2018-05-10T21:58:57.968Z,98191.46
2018-05-10T22:01:26.962Z,98184.73
2018-05-10T22:03:56.736Z,98188.86
2018-05-10T22:06:24.971Z,98191.98
2018-05-10T22:08:53.281Z,98187.87
2018-05-10T22:11:22.291Z,98181.01
2018-05-10T22:13:51.316Z,98183.55
2018-05-10T22:16:19.567Z,98187.61
2018-05-10T22:18:48.590Z,98181.77
2018-05-10T22:21:17.624Z,98187.56
2018-05-10T22:23:45.887Z,98188.08
2018-05-10T22:26:14.887Z,98190.59
2018-05-10T22:28:43.995Z,98188.14
2018-05-10T22:31:13.810Z,98191.53
2018-05-10T22:33:42.075Z,98191.11
2018-05-10T22:36:10.316Z,98190.20
2018-05-10T22:38:38.561Z,98192.12
2018-05-10T22:41:06.883Z,98188.15
2018-05-10T22:43:36.640Z,98197.00
2018-05-10T22:46:05.760Z,98193.16
2018-05-10T22:48:34.126Z,98192.05
2018-05-10T22:51:02.392Z,98193.22
2018-05-10T22:53:32.217Z,98189.14
2018-05-10T22:56:01.341Z,98199.61
2018-05-10T22:58:29.511Z,98190.84
2018-05-10T23:00:58.531Z,98197.39
2018-05-10T23:03:26.771Z,98190.86
2018-05-10T23:05:55.071Z,98184.95
2018-05-10T23:08:23.391Z,98185.35
2018-05-10T23:10:52.407Z,98180.04
2018-05-10T23:13:20.649Z,98187.02
2018-05-10T23:15:48.920Z,98172.98
2018-05-10T23:18:17.181Z,98172.75
2018-05-10T23:20:45.454Z,98174.80
2018-05-10T23:23:14.455Z,98173.34
2018-05-10T23:25:42.755Z,98168.31
2018-05-10T23:28:11.763Z,98168.14
2018-05-10T23:30:41.382Z,98169.03
2018-05-10T23:33:09.633Z,98163.27
2018-05-10T23:35:38.002Z,98158.47
2018-05-10T23:38:07.063Z,98160.91
2018-05-10T23:40:36.664Z,98158.78
2018-05-10T23:43:04.981Z,98160.00
2018-05-10T23:45:34.013Z,98156.83
2018-05-10T23:48:02.257Z,98163.23
2018-05-10T23:50:30.511Z,98156.25
2018-05-10T23:52:58.751Z,98158.27
2018-05-10T23:55:27.768Z,98158.77
2018-05-10T23:57:56.055Z,98159.57
